createdAt,value
2022-12-25T00:01:32.956Z,98177.38
2022-12-25T00:04:00.336Z,98178.81
2022-12-25T00:06:28.124Z,98185.13
2022-12-25T00:08:55.338Z,98179.31
2022-12-25T00:11:22.920Z,98179.50
2022-12-25T00:13:51.065Z,98189.72
2022-12-25T00:16:23.526Z,98200.63
2022-12-25T00:18:58.944Z,98201.63
2022-12-25T00:21:27.294Z,98201.47
2022-12-25T00:23:57.282Z,98209.72
2022-12-25T00:26:26.550Z,98210.44
2022-12-25T00:28:57.996Z,98219.25
2022-12-25T00:31:26.515Z,98229.81
2022-12-25T00:33:54.115Z,98238.34
2022-12-25T00:36:23.721Z,98235.75
2022-12-25T00:38:51.034Z,98238.03
2022-12-25T00:41:41.298Z,98244.06
2022-12-25T00:44:11.371Z,98248.34
2022-12-25T00:46:39.104Z,98242.41
2022-12-25T00:49:07.079Z,98249.41
2022-12-25T00:51:34.687Z,98259.06
2022-12-25T00:54:02.508Z,98257.72
2022-12-25T00:56:30.117Z,98255.63
2022-12-25T00:58:57.402Z,98263.84
2022-12-25T01:01:25.023Z,98273.41
2022-12-25T01:03:52.340Z,98266.69
2022-12-25T01:06:19.842Z,98272.91
2022-12-25T01:09:05.768Z,98261.00
2022-12-25T01:11:33.505Z,98278.09
2022-12-25T01:14:00.854Z,98278.94
2022-12-25T01:16:29.416Z,98281.97
2022-12-25T01:18:56.754Z,98285.66
2022-12-25T01:21:24.633Z,98284.56
2022-12-25T01:23:53.573Z,98298.41
2022-12-25T01:26:25.583Z,98300.06
2022-12-25T01:28:54.002Z,98296.81
2022-12-25T01:31:24.739Z,98290.50
2022-12-25T01:33:52.839Z,98288.84
2022-12-25T01:36:24.995Z,98290.50
2022-12-25T01:38:54.100Z,98289.84
2022-12-25T01:41:24.768Z,98297.75
2022-12-25T01:44:04.918Z,98304.09
2022-12-25T01:46:33.945Z,98304.09
2022-12-25T01:49:15.147Z,98318.22
2022-12-25T01:51:46.571Z,98322.50
2022-12-25T01:54:24.488Z,98324.91
2022-12-25T01:56:57.558Z,98322.41
2022-12-25T01:59:28.032Z,98323.00
2022-12-25T02:01:57.163Z,98317.78
2022-12-25T02:04:38.960Z,98325.16
2022-12-25T02:07:24.437Z,98330.19
2022-12-25T02:09:52.886Z,98323.88
2022-12-25T02:12:23.820Z,98324.59
2022-12-25T02:14:58.344Z,98329.78
2022-12-25T02:17:33.093Z,98335.72
2022-12-25T02:20:27.681Z,98333.47
2022-12-25T02:23:31.886Z,98334.56
2022-12-25T02:26:45.349Z,98325.41
2022-12-25T02:29:42.615Z,98322.91
2022-12-25T02:32:32.003Z,98328.88
2022-12-25T02:35:08.656Z,98334.72
2022-12-25T02:38:11.022Z,98340.50
2022-12-25T02:40:46.479Z,98331.47
2022-12-25T02:43:45.091Z,98321.91
2022-12-25T02:46:36.616Z,98324.25
2022-12-25T02:49:33.915Z,98328.19
2022-12-25T02:52:35.418Z,98331.28
2022-12-25T02:55:32.552Z,98336.75
2022-12-25T02:58:27.272Z,98330.28
2022-12-25T03:01:22.635Z,98324.59
2022-12-25T03:04:15.271Z,98336.16
2022-12-25T03:06:59.666Z,98339.00
2022-12-25T03:09:54.079Z,98326.84
2022-12-25T03:12:38.847Z,98328.84
2022-12-25T03:15:28.626Z,98336.00
2022-12-25T03:18:01.570Z,98331.47
2022-12-25T03:20:49.103Z,98329.09
2022-12-25T03:23:44.654Z,98340.34
2022-12-25T03:26:30.932Z,98341.84
2022-12-25T03:28:58.237Z,98336.19
2022-12-25T03:31:51.544Z,98344.78
2022-12-25T03:35:07.255Z,98345.69
2022-12-25T03:38:23.431Z,98348.28
2022-12-25T03:41:12.196Z,98340.34
2022-12-25T03:44:26.551Z,98350.88
2022-12-25T03:47:37.353Z,98349.06
2022-12-25T03:50:36.717Z,98358.69
2022-12-25T03:53:29.639Z,98356.56
2022-12-25T03:56:17.686Z,98361.63
2022-12-25T03:59:23.191Z,98357.59
2022-12-25T04:02:10.870Z,98372.09
2022-12-25T04:04:57.055Z,98359.91
2022-12-25T04:07:43.313Z,98365.97
2022-12-25T04:10:29.499Z,98362.00
2022-12-25T04:13:15.560Z,98368.63
2022-12-25T04:16:01.326Z,98384.22
2022-12-25T04:18:47.434Z,98380.19
2022-12-25T04:21:33.283Z,98384.47
2022-12-25T04:24:19.525Z,98391.94
2022-12-25T04:27:05.228Z,98393.09
2022-12-25T04:29:51.054Z,98398.38
2022-12-25T04:32:36.853Z,98398.38
2022-12-25T04:35:23.335Z,98398.38
2022-12-25T04:37:50.624Z,98404.22
2022-12-25T04:40:19.257Z,98398.44
2022-12-25T04:42:46.634Z,98400.56
2022-12-25T04:45:14.131Z,98398.09
2022-12-25T04:47:41.332Z,98400.56
2022-12-25T04:50:09.450Z,98406.88
2022-12-25T04:52:39.533Z,98399.38
2022-12-25T04:55:10.074Z,98398.41
2022-12-25T04:57:37.693Z,98394.53
2022-12-25T05:00:07.170Z,98395.72
2022-12-25T05:02:34.781Z,98383.28
2022-12-25T05:05:02.559Z,98394.88
2022-12-25T05:07:29.898Z,98397.06
2022-12-25T05:09:58.337Z,98395.38
2022-12-25T05:12:25.660Z,98402.75
2022-12-25T05:14:53.191Z,98410.78
2022-12-25T05:17:20.566Z,98410.59
2022-12-25T05:19:48.089Z,98406.91
2022-12-25T05:22:15.397Z,98413.25
2022-12-25T05:24:42.899Z,98412.22
2022-12-25T05:27:10.149Z,98411.94
2022-12-25T05:29:37.688Z,98416.16
2022-12-25T05:32:05.311Z,98422.81
2022-12-25T05:34:33.008Z,98419.59
2022-12-25T05:37:00.354Z,98416.16
2022-12-25T05:39:27.857Z,98428.94
2022-12-25T05:41:55.223Z,98428.09
2022-12-25T05:44:23.032Z,98433.84
2022-12-25T05:46:50.449Z,98434.84
2022-12-25T05:49:18.112Z,98434.84
2022-12-25T05:51:45.376Z,98436.06
2022-12-25T05:54:12.938Z,98437.25
2022-12-25T05:56:40.145Z,98437.13
2022-12-25T05:59:07.644Z,98438.97
2022-12-25T06:01:34.973Z,98437.56
2022-12-25T06:04:05.807Z,98431.75
2022-12-25T06:06:37.556Z,98430.44
2022-12-25T06:09:05.022Z,98441.94
2022-12-25T06:11:32.275Z,98447.41
2022-12-25T06:13:59.774Z,98456.94
2022-12-25T06:16:27.078Z,98461.06
2022-12-25T06:18:54.647Z,98465.28
2022-12-25T06:21:22.122Z,98459.47
2022-12-25T06:23:49.838Z,98463.25
2022-12-25T06:26:19.549Z,98479.22
2022-12-25T06:28:47.997Z,98480.00
2022-12-25T06:31:20.888Z,98485.25
2022-12-25T06:33:49.812Z,98476.63
2022-12-25T06:36:22.806Z,98479.38
2022-12-25T06:38:51.100Z,98496.47
2022-12-25T06:41:25.489Z,98493.09
2022-12-25T06:43:58.124Z,98492.50
2022-12-25T06:46:28.639Z,98496.03
2022-12-25T06:48:58.210Z,98494.44
2022-12-25T06:51:30.166Z,98495.19
2022-12-25T06:53:59.014Z,98513.94
2022-12-25T06:56:28.641Z,98516.66
2022-12-25T06:59:02.758Z,98523.38
2022-12-25T07:02:12.875Z,98524.22
2022-12-25T07:04:43.172Z,98538.09
2022-12-25T07:07:10.860Z,98556.91
2022-12-25T07:09:39.359Z,98546.53
2022-12-25T07:12:19.960Z,98561.81
2022-12-25T07:14:50.187Z,98566.16
2022-12-25T07:17:18.933Z,98575.22
2022-12-25T07:19:47.464Z,98587.09
2022-12-25T07:22:15.845Z,98579.38
2022-12-25T07:24:43.450Z,98585.00
2022-12-25T07:27:11.091Z,98583.81
2022-12-25T07:29:38.654Z,98592.44
2022-12-25T07:32:07.033Z,98593.28
2022-12-25T07:34:34.665Z,98588.44
2022-12-25T07:37:02.011Z,98594.19
2022-12-25T07:39:29.555Z,98589.63
2022-12-25T07:41:56.886Z,98585.00
2022-12-25T07:44:24.836Z,98586.53
2022-12-25T07:46:52.125Z,98593.75
2022-12-25T07:49:19.873Z,98583.44
2022-12-25T07:51:47.167Z,98576.81
2022-12-25T07:54:14.777Z,98574.44
2022-12-25T07:56:41.975Z,98585.53
2022-12-25T07:59:09.472Z,98583.09
2022-12-25T08:01:36.830Z,98583.34
2022-12-25T08:04:04.632Z,98586.50
2022-12-25T08:06:35.208Z,98586.19
2022-12-25T08:09:09.652Z,98585.22
2022-12-25T08:11:38.461Z,98583.56
2022-12-25T08:14:08.787Z,98586.28
2022-12-25T08:16:39.966Z,98590.19
2022-12-25T08:19:08.594Z,98589.53
2022-12-25T08:21:36.263Z,98591.41
2022-12-25T08:24:03.875Z,98591.72
2022-12-25T08:26:31.528Z,98585.47
2022-12-25T08:28:59.006Z,98580.00
2022-12-25T08:31:30.018Z,98576.91
2022-12-25T08:33:58.719Z,98573.28
2022-12-25T08:36:26.384Z,98566.69
2022-12-25T08:39:00.355Z,98572.50
2022-12-25T08:41:30.231Z,98581.38
2022-12-25T08:43:57.984Z,98586.13
2022-12-25T08:46:25.579Z,98602.00
2022-12-25T08:48:52.855Z,98591.69
2022-12-25T08:51:23.416Z,98602.84
2022-12-25T08:53:53.245Z,98611.28
2022-12-25T08:56:21.233Z,98612.91
2022-12-25T08:58:48.461Z,98623.47
2022-12-25T09:01:15.989Z,98624.75
2022-12-25T09:03:43.885Z,98619.50
2022-12-25T09:06:16.562Z,98625.66
2022-12-25T09:08:49.273Z,98623.19
2022-12-25T09:11:19.967Z,98625.44
2022-12-25T09:13:48.981Z,98623.53
2022-12-25T09:16:21.232Z,98622.16
2022-12-25T09:18:49.482Z,98635.88
2022-12-25T09:21:19.255Z,98630.66
2022-12-25T09:23:46.537Z,98625.56
2022-12-25T09:26:18.063Z,98624.63
2022-12-25T09:28:51.184Z,98625.91
2022-12-25T09:31:22.059Z,98632.13
2022-12-25T09:33:50.834Z,98633.91
2022-12-25T09:36:18.794Z,98636.09
2022-12-25T09:38:46.039Z,98639.00
2022-12-25T09:41:53.760Z,98639.28
2022-12-25T09:44:38.015Z,98641.19
2022-12-25T09:47:14.336Z,98648.34
2022-12-25T09:49:54.424Z,98661.38
2022-12-25T09:52:52.790Z,98652.91
2022-12-25T09:55:26.928Z,98649.22
2022-12-25T09:58:01.573Z,98643.56
2022-12-25T10:00:59.768Z,98641.56
2022-12-25T10:03:40.785Z,98646.16
2022-12-25T10:06:25.271Z,98647.00
2022-12-25T10:09:36.077Z,98641.97
2022-12-25T10:12:55.042Z,98646.31
2022-12-25T10:15:59.020Z,98636.09
2022-12-25T10:18:57.128Z,98632.47
2022-12-25T10:21:25.408Z,98629.91
2022-12-25T10:23:58.744Z,98634.00
2022-12-25T10:26:30.018Z,98628.28
2022-12-25T10:29:13.300Z,98626.84
2022-12-25T10:31:45.432Z,98624.09
2022-12-25T10:34:15.297Z,98617.56
2022-12-25T10:36:46.402Z,98624.38
2022-12-25T10:39:26.590Z,98620.53
2022-12-25T10:42:40.597Z,98608.25
2022-12-25T10:45:09.931Z,98612.41
2022-12-25T10:47:42.667Z,98605.75
2022-12-25T10:50:21.457Z,98611.88
2022-12-25T10:53:04.443Z,98620.22
2022-12-25T10:55:33.379Z,98609.25
2022-12-25T10:58:02.306Z,98610.44
2022-12-25T11:00:33.122Z,98600.94
2022-12-25T11:03:01.149Z,98608.31
2022-12-25T11:05:36.534Z,98587.66
2022-12-25T11:08:15.766Z,98595.31
2022-12-25T11:10:44.170Z,98595.47
2022-12-25T11:13:30.784Z,98596.03
2022-12-25T11:16:11.979Z,98592.06
2022-12-25T11:18:53.773Z,98579.72
2022-12-25T11:21:32.171Z,98581.22
2022-12-25T11:24:06.925Z,98576.47
2022-12-25T11:26:49.700Z,98584.13
2022-12-25T11:29:39.018Z,98582.75
2022-12-25T11:32:19.468Z,98587.38
2022-12-25T11:34:49.184Z,98581.63
2022-12-25T11:37:41.962Z,98596.94
2022-12-25T11:40:41.719Z,98576.69
2022-12-25T11:43:48.725Z,98568.44
2022-12-25T11:46:31.388Z,98559.19
2022-12-25T11:49:08.313Z,98560.13
2022-12-25T11:51:43.610Z,98554.97
2022-12-25T11:54:10.853Z,98566.41
2022-12-25T11:56:38.763Z,98561.97
2022-12-25T11:59:37.392Z,98565.53
2022-12-25T12:02:49.637Z,98571.25
2022-12-25T12:05:17.337Z,98565.56
2022-12-25T12:08:06.475Z,98566.03
2022-12-25T12:11:18.407Z,98555.88
2022-12-25T12:14:14.985Z,98549.81
2022-12-25T12:16:42.435Z,98537.78
2022-12-25T12:19:34.581Z,98539.75
2022-12-25T12:22:05.152Z,98536.44
2022-12-25T12:24:44.305Z,98541.03
2022-12-25T12:27:27.911Z,98534.72
2022-12-25T12:29:59.787Z,98541.72
2022-12-25T12:32:43.177Z,98544.00
2022-12-25T12:35:28.020Z,98548.69
2022-12-25T12:38:17.170Z,98533.72
2022-12-25T12:41:04.748Z,98544.59
2022-12-25T12:43:39.043Z,98540.53
2022-12-25T12:46:31.571Z,98526.97
2022-12-25T12:49:35.145Z,98522.47
2022-12-25T12:52:23.914Z,98516.59
2022-12-25T12:54:59.233Z,98527.66
2022-12-25T12:57:32.828Z,98521.00
2022-12-25T13:00:08.691Z,98533.56
2022-12-25T13:03:06.136Z,98534.75
2022-12-25T13:05:46.246Z,98528.41
2022-12-25T13:09:15.849Z,98532.47
2022-12-25T13:11:44.802Z,98540.09
2022-12-25T13:14:23.182Z,98543.34
2022-12-25T13:16:54.818Z,98542.88
2022-12-25T13:19:27.538Z,98535.31
2022-12-25T13:22:01.983Z,98549.91
2022-12-25T13:24:34.230Z,98541.53
2022-12-25T13:27:26.730Z,98546.22
2022-12-25T13:29:54.597Z,98535.34
2022-12-25T13:32:34.158Z,98541.28
2022-12-25T13:35:02.340Z,98533.19
2022-12-25T13:37:31.893Z,98539.75
2022-12-25T13:40:07.298Z,98533.38
2022-12-25T13:42:40.142Z,98525.19
2022-12-25T13:45:14.531Z,98536.97
2022-12-25T13:48:01.885Z,98541.75
2022-12-25T13:50:34.647Z,98535.41
2022-12-25T13:53:16.615Z,98527.97
2022-12-25T13:55:55.524Z,98535.03
2022-12-25T13:58:30.888Z,98521.91
2022-12-25T14:01:03.063Z,98506.13
2022-12-25T14:03:46.577Z,98506.16
2022-12-25T14:06:20.655Z,98504.75
2022-12-25T14:08:50.348Z,98517.38
2022-12-25T14:11:25.780Z,98523.16
2022-12-25T14:14:03.211Z,98516.63
2022-12-25T14:16:32.744Z,98524.63
2022-12-25T14:19:02.951Z,98523.25
2022-12-25T14:21:41.857Z,98532.22
2022-12-25T14:24:17.353Z,98518.13
2022-12-25T14:26:45.135Z,98517.56
2022-12-25T14:29:20.446Z,98510.25
2022-12-25T14:31:50.190Z,98513.84
2022-12-25T14:34:27.595Z,98508.53
2022-12-25T14:36:55.568Z,98500.78
2022-12-25T14:39:35.202Z,98484.81
2022-12-25T14:42:20.693Z,98470.53
2022-12-25T14:45:35.953Z,98474.84
2022-12-25T14:48:25.461Z,98477.47
2022-12-25T14:51:30.602Z,98487.00
2022-12-25T14:54:03.368Z,98501.09
2022-12-25T14:56:39.276Z,98505.72
2022-12-25T14:59:10.292Z,98503.69
2022-12-25T15:01:41.561Z,98503.22
2022-12-25T15:04:12.117Z,98521.56
2022-12-25T15:06:51.752Z,98516.69
2022-12-25T15:09:19.527Z,98525.19
2022-12-25T15:11:56.405Z,98526.56
2022-12-25T15:14:26.215Z,98528.88
2022-12-25T15:17:01.370Z,98534.00
2022-12-25T15:19:38.869Z,98530.13
2022-12-25T15:22:06.717Z,98525.03
2022-12-25T15:24:34.252Z,98523.63
2022-12-25T15:27:01.677Z,98511.22
2022-12-25T15:30:07.976Z,98498.00
2022-12-25T15:32:20.675Z,98490.41
2022-12-25T15:34:50.050Z,98481.22
2022-12-25T15:37:20.484Z,98477.22
2022-12-25T15:39:47.978Z,98479.09
2022-12-25T15:42:21.746Z,98480.50
2022-12-25T15:44:49.966Z,98464.28
2022-12-25T15:47:20.269Z,98454.88
2022-12-25T15:49:47.976Z,98440.66
2022-12-25T15:52:17.661Z,98434.72
2022-12-25T15:54:45.460Z,98438.00
2022-12-25T15:57:23.139Z,98440.06
2022-12-25T15:59:50.660Z,98451.66
2022-12-25T16:02:20.848Z,98456.50
2022-12-25T16:04:51.080Z,98452.03
2022-12-25T16:07:23.594Z,98458.59
2022-12-25T16:09:52.014Z,98453.75
2022-12-25T16:12:19.970Z,98452.44
2022-12-25T16:14:47.532Z,98441.69
2022-12-25T16:17:17.170Z,98437.25
2022-12-25T16:19:45.545Z,98442.75
2022-12-25T16:22:18.605Z,98448.25
2022-12-25T16:24:51.908Z,98448.34
2022-12-25T16:27:19.163Z,98446.59
2022-12-25T16:29:47.226Z,98454.41
2022-12-25T16:32:15.966Z,98459.09
2022-12-25T16:34:43.671Z,98466.22
2022-12-25T16:37:10.949Z,98454.31
2022-12-25T16:39:38.580Z,98466.03
2022-12-25T16:42:06.008Z,98461.19
2022-12-25T16:44:37.611Z,98455.69
2022-12-25T16:47:04.961Z,98446.16
2022-12-25T16:49:32.644Z,98439.09
2022-12-25T16:51:59.886Z,98436.38
2022-12-25T16:54:27.528Z,98433.38
2022-12-25T16:56:54.766Z,98433.28
2022-12-25T16:59:22.359Z,98437.66
2022-12-25T17:01:49.721Z,98437.88
2022-12-25T17:04:17.350Z,98436.00
2022-12-25T17:06:44.604Z,98428.31
2022-12-25T17:09:12.386Z,98425.13
2022-12-25T17:11:39.801Z,98426.75
2022-12-25T17:14:07.430Z,98424.31
2022-12-25T17:16:38.158Z,98413.97
2022-12-25T17:19:15.967Z,98411.75
2022-12-25T17:21:43.359Z,98399.91
2022-12-25T17:24:10.975Z,98390.31
2022-12-25T17:26:40.750Z,98381.91
2022-12-25T17:29:10.327Z,98372.03
2022-12-25T17:31:39.586Z,98372.94
2022-12-25T17:34:09.108Z,98374.44
2022-12-25T17:36:37.132Z,98370.88
2022-12-25T17:39:06.439Z,98386.44
2022-12-25T17:41:34.526Z,98390.63
2022-12-25T17:44:02.613Z,98389.09
2022-12-25T17:46:31.539Z,98394.38
2022-12-25T17:49:01.191Z,98385.81
2022-12-25T17:51:30.990Z,98388.44
2022-12-25T17:54:03.354Z,98393.16
2022-12-25T17:56:32.476Z,98395.13
2022-12-25T17:59:08.212Z,98391.88
2022-12-25T18:01:38.852Z,98382.63
2022-12-25T18:04:07.375Z,98382.81
2022-12-25T18:06:36.665Z,98379.69
2022-12-25T18:09:06.386Z,98381.16
2022-12-25T18:11:34.018Z,98376.06
2022-12-25T18:14:07.343Z,98370.34
2022-12-25T18:16:38.512Z,98373.34
2022-12-25T18:19:06.813Z,98368.13
2022-12-25T18:21:34.270Z,98379.63
2022-12-25T18:24:06.445Z,98382.03
2022-12-25T18:26:34.295Z,98376.63
2022-12-25T18:29:02.328Z,98370.69
2022-12-25T18:31:32.822Z,98368.81
2022-12-25T18:34:00.816Z,98364.63
2022-12-25T18:36:30.045Z,98364.03
2022-12-25T18:38:58.933Z,98360.03
2022-12-25T18:41:28.828Z,98366.84
2022-12-25T18:43:59.829Z,98360.28
2022-12-25T18:46:28.061Z,98369.78
2022-12-25T18:48:57.193Z,98358.81
2022-12-25T18:51:27.691Z,98357.66
2022-12-25T18:53:58.809Z,98354.28
2022-12-25T18:56:26.127Z,98343.38
2022-12-25T18:58:53.628Z,98345.06
2022-12-25T19:01:23.836Z,98342.88
2022-12-25T19:03:56.066Z,98351.09
2022-12-25T19:06:32.701Z,98354.63
2022-12-25T19:09:00.334Z,98343.97
2022-12-25T19:11:27.684Z,98353.19
2022-12-25T19:13:56.035Z,98350.59
2022-12-25T19:16:23.368Z,98349.00
2022-12-25T19:18:50.993Z,98349.00
2022-12-25T19:21:18.245Z,98342.78
2022-12-25T19:23:45.972Z,98338.22
2022-12-25T19:26:13.294Z,98341.19
2022-12-25T19:28:41.488Z,98336.00
2022-12-25T19:31:10.132Z,98329.66
2022-12-25T19:33:40.470Z,98324.22
2022-12-25T19:36:12.852Z,98319.34
2022-12-25T19:38:40.974Z,98318.91
2022-12-25T19:41:17.828Z,98323.22
2022-12-25T19:43:48.196Z,98315.41
2022-12-25T19:46:26.282Z,98314.16
2022-12-25T19:48:56.307Z,98313.81
2022-12-25T19:51:29.056Z,98315.50
2022-12-25T19:53:57.098Z,98309.66
2022-12-25T19:56:26.784Z,98303.66
2022-12-25T19:58:55.775Z,98306.75
2022-12-25T20:01:27.436Z,98303.22
2022-12-25T20:03:55.763Z,98297.00
2022-12-25T20:06:32.852Z,98282.59
2022-12-25T20:09:07.410Z,98280.94
2022-12-25T20:11:37.304Z,98279.63
2022-12-25T20:14:07.355Z,98274.88
2022-12-25T20:16:38.743Z,98275.13
2022-12-25T20:19:07.723Z,98280.44
2022-12-25T20:21:35.432Z,98274.72
2022-12-25T20:24:03.255Z,98273.66
2022-12-25T20:26:32.392Z,98277.72
2022-12-25T20:29:00.123Z,98268.88
2022-12-25T20:31:31.343Z,98253.94
2022-12-25T20:34:06.083Z,98259.47
2022-12-25T20:36:37.760Z,98255.53
2022-12-25T20:39:09.997Z,98256.97
2022-12-25T20:41:39.742Z,98250.94
2022-12-25T20:44:10.381Z,98244.78
2022-12-25T20:46:38.192Z,98242.00
2022-12-25T20:49:06.094Z,98249.06
2022-12-25T20:51:33.605Z,98249.81
2022-12-25T20:54:06.508Z,98239.50
2022-12-25T20:56:34.405Z,98229.72
2022-12-25T20:59:02.952Z,98217.94
2022-12-25T21:01:31.885Z,98230.97
2022-12-25T21:03:59.723Z,98227.16
2022-12-25T21:06:27.296Z,98225.50
2022-12-25T21:08:55.008Z,98222.50
2022-12-25T21:11:22.781Z,98223.78
2022-12-25T21:13:50.814Z,98216.94
2022-12-25T21:16:22.361Z,98210.34
2022-12-25T21:18:53.261Z,98196.00
2022-12-25T21:21:21.925Z,98189.72
2022-12-25T21:23:49.685Z,98188.31
2022-12-25T21:26:28.989Z,98185.94
2022-12-25T21:29:00.564Z,98196.44
2022-12-25T21:31:29.148Z,98203.50
2022-12-25T21:33:57.941Z,98218.59
2022-12-25T21:36:34.612Z,98207.59
2022-12-25T21:39:10.837Z,98196.63
2022-12-25T21:41:39.543Z,98205.91
2022-12-25T21:44:08.842Z,98202.19
2022-12-25T21:46:36.216Z,98203.13
2022-12-25T21:49:04.254Z,98195.28
2022-12-25T21:51:52.796Z,98197.03
2022-12-25T21:54:23.104Z,98187.72
2022-12-25T21:56:50.983Z,98187.22
2022-12-25T21:59:21.831Z,98182.69
2022-12-25T22:01:51.817Z,98173.16
2022-12-25T22:04:23.337Z,98178.25
2022-12-25T22:07:09.471Z,98180.28
2022-12-25T22:09:37.865Z,98189.47
2022-12-25T22:12:28.565Z,98191.25
2022-12-25T22:15:06.353Z,98183.72
2022-12-25T22:17:58.511Z,98181.78
2022-12-25T22:20:38.200Z,98175.00
2022-12-25T22:23:05.984Z,98180.84
2022-12-25T22:25:33.661Z,98177.69
2022-12-25T22:28:00.999Z,98167.19
2022-12-25T22:30:29.778Z,98175.09
2022-12-25T22:32:57.587Z,98166.47
2022-12-25T22:35:25.727Z,98166.53
2022-12-25T22:37:54.254Z,98165.53
2022-12-25T22:40:22.668Z,98157.47
2022-12-25T22:42:54.032Z,98150.50
2022-12-25T22:45:21.882Z,98140.06
2022-12-25T22:47:50.281Z,98139.59
2022-12-25T22:50:18.025Z,98127.53
2022-12-25T22:52:46.694Z,98141.88
2022-12-25T22:55:18.631Z,98153.03
2022-12-25T22:57:46.211Z,98145.91
2022-12-25T23:00:14.288Z,98142.38
2022-12-25T23:02:41.792Z,98140.22
2022-12-25T23:05:09.673Z,98151.44
2022-12-25T23:07:37.083Z,98143.41
2022-12-25T23:10:06.777Z,98148.00
2022-12-25T23:12:53.004Z,98148.41
2022-12-25T23:15:20.648Z,98149.00
2022-12-25T23:18:06.632Z,98148.84
2022-12-25T23:20:52.974Z,98145.31
2022-12-25T23:23:38.810Z,98158.22
2022-12-25T23:26:09.652Z,98156.63
2022-12-25T23:29:01.030Z,98143.72
2022-12-25T23:31:36.909Z,98142.88
2022-12-25T23:34:06.735Z,98144.31
2022-12-25T23:36:35.136Z,98141.88
2022-12-25T23:39:09.692Z,98141.47
2022-12-25T23:41:40.491Z,98143.91
2022-12-25T23:44:10.256Z,98130.97
2022-12-25T23:46:38.784Z,98125.78
2022-12-25T23:49:06.952Z,98107.78
2022-12-25T23:51:43.633Z,98098.50
2022-12-25T23:54:18.679Z,98088.63
2022-12-25T23:56:46.458Z,98072.69
2022-12-25T23:59:14.695Z,98071.38
